Latest Weather Observations for Kingaroy

IDQ60901

Issued at 10:11 pm EST Wednesday 24 August 2016 (issued every 10 minutes, with the page automatically refreshed every 10 minutes)

About weather observations | Map of Brisbane area stations | Latest observations for Brisbane area | Other Formats
Station Details ID: 040922 Name: KINGAROY AIRPORT Lat: -26.57 Lon: 151.84 Height: 433.67 m
Data from the previous 72 hours. | See also: Recent months at Kingaroy
Date/Time
EST
Temp
°C
App
Temp
°C
Dew
Point
°C
Rel
Hum
%
Delta-T
°C
Wind Press
QNH
hPa
Press
MSL
hPa
Rain since
9am
mm
Dir  Spd
km/h
Gust
km/h
Spd
kts
Gust
kts
24/10:03pm 15.4 14.4 14.6 95 0.5 NNW 13 22 7 12 1010.1 1009.7 6.6
24/10:00pm 15.3 14.3 14.5 95 0.5 NNW 13 15 7 8 1009.9 1009.5 6.6
24/09:30pm 15.5 14.1 14.5 94 0.6 NNW 15 20 8 11 1009.9 1009.5 6.6
24/09:00pm 15.8 14.1 14.7 93 0.6 NW 17 24 9 13 1010.5 1010.1 6.6
24/08:55pm 15.8 13.7 14.7 93 0.6 NW 19 24 10 13 1010.3 1009.9 6.6
24/08:30pm 15.9 14.2 14.8 93 0.6 NNW 17 22 9 12 1010.1 1009.7 6.6
24/08:00pm 16.2 15.4 15.1 93 0.7 NNW 13 17 7 9 1009.9 1009.5 6.6
24/07:30pm 16.7 14.3 15.4 92 0.8 NNW 22 28 12 15 1010.0 1009.6 6.6
24/07:00pm 17.0 15.7 15.9 93 0.7 N 17 24 9 13 1009.1 1008.6 6.6
24/06:30pm 17.0 17.3 15.9 93 0.7 NNW 9 15 5 8 1009.4 1009.0 6.6
24/06:19pm 16.8 17.0 15.7 93 0.7 NNW 9 9 5 5 1009.2 1008.7 6.6
24/06:00pm 17.0 16.3 15.5 91 0.9 N 13 17 7 9 1008.9 1008.5 6.6
24/05:30pm 17.1 16.0 15.4 90 1.0 NNW 15 17 8 9 1009.1 1008.6 6.6
24/05:00pm 17.7 17.6 15.9 89 1.1 NNW 11 15 6 8 1009.3 1008.9 6.6
24/04:30pm 18.0 17.5 15.8 87 1.3 WNW 13 20 7 11 1009.3 1008.9 6.4
24/04:00pm 18.1 18.2 15.5 85 1.6 W 9 11 5 6 1008.5 1008.1 6.4
24/03:30pm 18.3 18.2 15.9 86 1.4 NW 11 15 6 8 1007.8 1007.4 6.4
24/03:00pm 18.3 17.5 16.1 87 1.3 W 15 24 8 13 1008.6 1008.2 6.4
24/02:33pm 18.2 17.0 16.0 87 1.3 WNW 17 24 9 13 1008.6 1008.2 6.2
24/02:30pm 18.2 17.0 16.2 88 1.2 WNW 17 24 9 13 1008.7 1008.3 6.2
24/02:00pm 18.2 16.7 16.2 88 1.2 WNW 19 28 10 15 1008.6 1008.2 6.2
24/01:30pm 17.8 16.6 16.1 90 1.0 WNW 17 22 9 12 1008.4 1008.0 6.0
24/01:14pm 17.7 16.2 16.2 91 0.9 WNW 19 24 10 13 1008.6 1008.2 6.0
24/01:00pm 17.2 15.6 15.9 92 0.8 WNW 19 28 10 15 1008.8 1008.4 6.0
24/12:31pm 16.9 15.1 15.4 91 0.9 W 19 24 10 13 1008.9 1008.5 5.8
24/12:30pm 16.9 15.1 15.4 91 0.9 W 19 24 10 13 1008.9 1008.5 5.8
24/12:13pm 16.7 14.9 15.4 92 0.8 WNW 19 28 10 15 1009.3 1008.9 5.6
24/12:00pm 16.8 15.3 15.2 90 1.0 W 17 30 9 16 1009.2 1008.7 5.0
24/11:50am 16.7 16.5 15.7 94 0.6 W 11 20 6 11 1008.6 1008.2 5.0
24/11:39am 16.2 14.7 15.2 94 0.6 W 17 26 9 14 1009.1 1008.6 4.8
24/11:30am 16.0 12.6 14.7 92 0.8 WSW 26 35 14 19 1009.4 1009.0 4.6
24/11:17am 17.7 17.3 17.1 96 0.4 WNW 15 20 8 11 1009.3 1008.9 3.2
24/11:10am 17.7 16.8 16.9 95 0.5 NW 17 20 9 11 1009.5 1009.1 2.4
24/11:03am 17.8 17.0 17.0 95 0.5 NW 17 20 9 11 1009.4 1009.0 1.4
24/11:02am 17.8 17.0 17.0 95 0.5 NW 17 20 9 11 1009.4 1009.0 1.4
24/11:00am 17.8 17.0 17.0 95 0.5 NW 17 20 9 11 1009.4 1009.0 1.4
24/10:47am 17.7 15.8 16.6 93 0.7 WNW 22 28 12 15 1009.5 1009.1 1.2
24/10:36am 18.2 15.5 16.7 91 0.9 NW 26 35 14 19 1009.5 1009.1 0.4
24/10:30am 18.4 15.7 16.7 90 1.0 NW 26 35 14 19 1009.5 1009.1 0.2
24/10:00am 19.4 15.9 16.4 83 1.8 NNW 30 39 16 21 1009.6 1009.2 0.0
24/09:30am 19.6 16.4 16.3 81 2.0 NNW 28 39 15 21 1009.7 1009.3 0.0
24/09:07am 20.1 17.0 16.5 80 2.2 NNW 28 46 15 25 1009.8 1009.4 0.0
24/09:00am 19.9 16.4 16.5 81 2.1 NNW 30 46 16 25 1010.0 1009.6 6.6
24/08:58am 19.9 16.7 16.3 80 2.2 NNW 28 46 15 25 1009.9 1009.5 6.6
24/08:30am 19.7 16.4 16.9 84 1.7 NNW 30 41 16 22 1010.1 1009.7 6.6
24/08:15am 19.5 17.7 16.9 85 1.6 NNW 22 33 12 18 1010.1 1009.7 6.6
24/08:00am 19.2 17.9 17.3 89 1.2 NNW 20 28 11 15 1010.0 1009.6 6.6
24/07:32am 18.6 17.2 17.1 91 0.9 N 20 30 11 16 1009.9 1009.5 6.6
24/07:30am 18.6 17.5 17.3 92 0.8 N 19 26 10 14 1010.0 1009.6 6.6
24/07:29am 18.6 17.4 17.1 91 0.9 N 19 26 10 14 1009.9 1009.5 6.6
24/07:00am 18.6 16.9 17.1 91 0.9 N 22 32 12 17 1009.9 1009.5 6.6
24/06:30am 18.5 17.2 16.8 90 1.0 N 19 28 10 15 1009.4 1009.0 6.6
24/06:00am 18.5 17.7 17.0 91 0.9 N 17 22 9 12 1009.3 1008.9 6.6
24/05:42am 18.4 18.3 16.9 91 0.9 N 13 20 7 11 1009.1 1008.6 6.6
24/05:30am 18.4 17.9 16.9 91 0.9 N 15 20 8 11 1008.8 1008.4 6.6
24/05:22am 18.3 18.1 16.8 91 0.9 N 13 20 7 11 1008.8 1008.4 6.6
24/05:06am 18.4 17.9 16.9 91 0.9 N 15 24 8 13 1008.9 1008.5 6.6
24/05:05am 18.4 17.9 16.9 91 0.9 N 15 24 8 13 1008.9 1008.5 6.6
24/05:00am 18.4 17.9 16.9 91 0.9 N 15 24 8 13 1008.9 1008.5 6.6
24/04:46am 18.3 18.1 16.8 91 0.9 N 13 20 7 11 1008.8 1008.4 6.6
24/04:40am 18.3 18.1 16.8 91 0.9 N 13 20 7 11 1008.8 1008.4 6.6
24/04:30am 18.2 18.1 16.9 92 0.8 N 13 20 7 11 1008.7 1008.3 6.6
24/04:00am 18.2 17.3 16.9 92 0.8 N 17 24 9 13 1008.8 1008.4 6.6
24/03:30am 18.2 16.9 16.9 92 0.8 N 19 28 10 15 1009.2 1008.7 6.6
24/03:00am 18.1 17.2 16.8 92 0.8 N 17 24 9 13 1009.7 1009.3 6.6
24/02:30am 18.0 17.0 16.7 92 0.8 N 17 26 9 14 1010.1 1009.7 6.6
24/02:00am 17.8 17.2 16.7 93 0.7 N 15 22 8 12 1010.5 1010.1 6.6
24/01:30am 18.1 17.0 16.4 90 1.0 N 17 26 9 14 1010.5 1010.1 6.6
24/01:00am 18.0 17.3 16.5 91 0.9 N 15 22 8 12 1011.0 1010.6 6.6
24/12:30am 17.9 16.9 16.6 92 0.8 NNE 17 24 9 13 1011.5 1011.1 6.6
24/12:00am 17.6 17.7 16.6 94 0.6 NNE 11 15 6 8 1011.8 1011.4 6.6
 
Date/Time
EST
Temp
°C
App
Temp
°C
Dew
Point
°C
Rel
Hum
%
Delta-T
°C
Wind Press
QNH
hPa
Press
MSL
hPa
Rain since
9am
mm
Dir  Spd
km/h
Gust
km/h
Spd
kts
Gust
kts
23/11:30pm 17.6 17.3 16.5 93 0.7 NNE 13 19 7 10 1011.9 1011.5 6.6
23/11:00pm 17.4 17.7 16.1 92 0.8 N 9 13 5 7 1012.8 1012.4 6.6
23/10:30pm 17.6 18.0 16.3 92 0.8 NNE 9 13 5 7 1013.0 1012.6 6.4
23/10:00pm 17.5 17.9 16.2 92 0.8 NNE 9 15 5 8 1012.8 1012.4 6.4
23/09:47pm 17.6 17.5 16.1 91 0.9 NNE 11 19 6 10 1013.1 1012.7 6.4
23/09:30pm 17.7 17.6 16.0 90 1.0 NNE 11 19 6 10 1013.2 1012.9 6.4
23/09:00pm 18.1 17.3 16.1 88 1.2 N 15 24 8 13 1013.8 1013.5 6.4
23/08:30pm 17.6 18.3 16.1 91 0.9 NE 7 11 4 6 1013.8 1013.5 6.2
23/08:14pm 17.4 17.9 15.6 89 1.1 ENE 7 9 4 5 1013.7 1013.4 6.0
23/08:00pm 17.6 17.5 14.9 84 1.6 ENE 9 15 5 8 1013.5 1013.2 5.2
23/07:51pm 18.4 18.4 14.1 76 2.5 NE 7 19 4 10 1013.5 1013.2 1.8
23/07:30pm 20.7 20.0 13.2 62 4.4 NE 9 13 5 7 1013.4 1013.1 0.0
23/07:00pm 20.6 19.8 12.8 61 4.5 E 9 11 5 6 1013.3 1013.0 0.0
23/06:30pm 20.8 20.3 12.8 60 4.6 E 7 11 4 6 1013.0 1012.6 0.0
23/06:00pm 21.2 20.7 12.6 58 5.0 ENE 7 9 4 5 1012.7 1012.3 0.0
23/05:30pm 21.5 21.1 12.4 56 5.2 ENE 6 9 3 5 1012.8 1012.4 0.0
23/05:00pm 22.2 21.2 12.2 53 5.8 NNE 9 13 5 7 1012.7 1012.3 0.0
23/04:30pm 22.6 21.1 12.0 51 6.1 N 11 19 6 10 1012.5 1012.1 0.0
23/04:00pm 22.6 20.9 12.3 52 6.0 N 13 19 7 10 1012.5 1012.1 0.0
23/03:30pm 22.9 20.2 11.6 49 6.5 N 17 22 9 12 1012.3 1011.9 0.0
23/03:00pm 23.8 21.9 11.8 47 6.9 N 13 19 7 10 1012.4 1012.0 0.0
23/02:30pm 23.5 20.0 10.9 45 7.1 N 20 32 11 17 1012.4 1012.0 0.0
23/02:00pm 24.1 21.9 12.1 47 7.0 NW 15 24 8 13 1012.7 1012.3 0.0
23/01:30pm 23.0 21.5 12.0 50 6.3 NNW 11 17 6 9 1012.9 1012.5 0.0
23/01:00pm 23.1 21.3 12.1 50 6.4 NW 13 22 7 12 1013.5 1013.2 0.0
23/12:30pm 22.7 20.7 12.6 53 5.9 NW 15 22 8 12 1013.8 1013.5 0.0
23/12:00pm 22.1 19.6 12.4 54 5.6 NNW 17 24 9 13 1014.2 1013.8 0.0
23/11:30am 22.0 19.2 12.5 54 5.5 NNW 19 32 10 17 1015.1 1014.7 0.0
23/11:00am 21.6 19.2 12.5 56 5.3 NW 17 26 9 14 1015.7 1015.4 0.0
23/10:30am 21.5 18.5 12.1 55 5.4 NNW 19 24 10 13 1016.0 1015.7 0.0
23/10:00am 21.6 19.1 13.5 60 4.8 N 19 26 10 14 1016.0 1015.7 0.0
23/09:30am 19.6 16.6 12.6 64 4.0 N 20 32 11 17 1016.0 1015.7 0.0
23/09:00am 18.4 16.4 13.9 75 2.6 N 17 24 9 13 1016.4 1016.0 0.2
23/08:37am 17.8 16.0 14.5 81 1.9 NNW 17 20 9 11 1016.5 1016.1 0.2
23/08:30am 16.7 14.3 13.8 83 1.7 NW 19 22 10 12 1016.6 1016.2 0.2
23/08:00am 16.6 15.5 14.4 87 1.3 NNW 13 20 7 11 1016.1 1015.8 0.2
23/07:30am 16.3 15.5 15.0 92 0.8 N 13 19 7 10 1015.1 1014.7 0.2
23/07:00am 15.1 14.7 14.1 94 0.6 N 9 13 5 7 1015.0 1014.6 0.2
23/06:45am 15.0 14.3 14.2 95 0.5 N 11 17 6 9 1015.0 1014.6 0.2
23/06:30am 14.9 14.9 14.1 95 0.5 NNE 7 11 4 6 1014.8 1014.4 0.2
23/06:09am 14.4 14.1 13.3 93 0.6 NE 7 11 4 6 1014.8 1014.4 0.2
23/06:00am 14.7 14.1 13.6 93 0.6 N 9 11 5 6 1014.9 1014.5 0.2
23/05:30am 15.0 15.3 14.4 96 0.3 NNE 6 13 3 7 1015.2 1014.9 0.2
23/05:00am 14.5 15.3 13.7 95 0.5 N 2 6 1 3 1015.5 1015.2 0.2
23/04:31am 14.6 14.5 14.0 96 0.3 NNE 7 9 4 5 1015.4 1015.1 0.2
23/04:30am 14.6 14.5 14.0 96 0.3 NNE 7 9 4 5 1015.4 1015.1 0.2
23/04:00am 14.2 14.1 13.2 94 0.6 NNE 6 7 3 4 1015.3 1015.0 0.0
23/03:57am 14.1 13.9 13.1 94 0.6 NNE 6 7 3 4 1015.3 1015.0 0.0
23/03:30am 13.9 14.8 12.8 93 0.6 CALM 0 0 0 0 1015.4 1015.1 0.0
23/03:25am 13.9 14.4 12.8 93 0.6 ENE 2 7 1 4 1015.4 1015.1 0.0
23/03:19am 14.0 14.5 12.9 93 0.6 NE 2 7 1 4 1015.4 1015.1 0.0
23/03:00am 14.1 14.3 13.0 93 0.6 NNW 4 6 2 3 1015.6 1015.3 0.0
23/02:30am 14.2 15.2 13.1 93 0.6 CALM 0 6 0 3 1015.9 1015.6 0.0
23/02:00am 14.2 13.8 12.9 92 0.7 NNW 7 7 4 4 1015.9 1015.6 0.0
23/01:30am 14.4 14.0 13.0 91 0.8 WNW 7 9 4 5 1016.1 1015.8 0.0
23/01:00am 15.1 14.5 13.5 90 0.9 N 9 11 5 6 1016.1 1015.8 0.0
23/12:30am 14.6 14.3 12.6 88 1.1 N 6 9 3 5 1016.5 1016.1 0.0
23/12:00am 15.3 15.0 13.3 88 1.1 N 7 13 4 7 1016.7 1016.3 0.0
 
Date/Time
EST
Temp
°C
App
Temp
°C
Dew
Point
°C
Rel
Hum
%
Delta-T
°C
Wind Press
QNH
hPa
Press
MSL
hPa
Rain since
9am
mm
Dir  Spd
km/h
Gust
km/h
Spd
kts
Gust
kts
22/11:30pm 15.0 14.4 13.4 90 0.9 N 9 15 5 8 1016.6 1016.2 0.0
22/11:00pm 14.5 14.8 12.2 86 1.3 NE 2 6 1 3 1016.5 1016.1 0.0
22/10:30pm 15.6 14.5 13.1 85 1.4 NNE 11 15 6 8 1016.5 1016.1 0.0
22/10:00pm 15.9 15.1 13.0 83 1.6 NNE 9 13 5 7 1016.5 1016.1 0.0
22/09:30pm 16.5 14.7 13.4 82 1.8 NNE 15 22 8 12 1016.2 1015.9 0.0
22/09:00pm 16.6 14.5 13.5 82 1.8 NNE 17 30 9 16 1015.9 1015.6 0.0
22/08:30pm 16.2 14.8 13.5 84 1.5 NNE 13 17 7 9 1016.0 1015.7 0.0
22/08:00pm 16.5 15.1 13.4 82 1.8 NNE 13 20 7 11 1015.8 1015.5 0.0
22/07:30pm 17.1 15.3 13.2 78 2.2 NE 15 20 8 11 1015.5 1015.2 0.0
22/07:00pm 17.8 15.4 12.5 71 3.0 NNE 17 28 9 15 1014.8 1014.4 0.0
22/06:30pm 18.5 16.3 10.8 61 4.2 NNE 13 20 7 11 1014.5 1014.1 0.0
22/06:00pm 18.9 17.1 11.0 60 4.4 NNE 11 19 6 10 1014.7 1014.3 0.0
22/05:30pm 19.3 16.7 10.6 57 4.8 NNE 15 20 8 11 1014.4 1014.0 0.0
22/05:00pm 20.7 17.1 10.5 52 5.7 NNE 20 28 11 15 1014.2 1013.8 0.0
22/04:30pm 21.6 18.4 10.1 48 6.4 N 17 26 9 14 1014.2 1013.8 0.0
22/04:00pm 22.0 17.5 10.2 47 6.6 NNE 24 35 13 19 1014.3 1013.9 0.0
22/03:30pm 22.3 19.0 10.8 48 6.5 NNE 19 30 10 16 1014.2 1013.8 0.0
22/03:00pm 22.5 18.5 10.3 46 6.8 NNE 22 39 12 21 1014.2 1013.8 0.0
22/02:30pm 21.9 17.6 9.4 45 6.8 NNE 22 33 12 18 1014.4 1014.0 0.0
22/02:00pm 22.4 18.2 9.9 45 6.9 NNE 22 35 12 19 1014.8 1014.4 0.0
22/01:30pm 22.2 19.6 10.7 48 6.5 NE 15 28 8 15 1015.4 1015.1 0.0
22/01:00pm 22.4 18.6 9.9 45 6.9 NNE 20 33 11 18 1015.8 1015.5 0.0
22/12:30pm 21.8 18.8 10.6 49 6.3 NE 17 30 9 16 1016.4 1016.0 0.0
22/12:00pm 20.7 17.9 11.3 55 5.3 N 17 24 9 13 1016.9 1016.5 0.0
22/11:30am 19.8 17.2 10.8 56 5.0 NE 15 26 8 14 1017.4 1017.1 0.0
22/11:00am 20.8 17.7 11.7 56 5.2 NNE 19 28 10 15 1017.7 1017.4 0.0
22/10:30am 20.4 17.4 11.9 58 4.8 NNE 19 26 10 14 1018.0 1017.7 0.0
22/10:00am 18.4 15.8 11.9 66 3.7 NE 17 28 9 15 1018.3 1018.0 0.0
22/09:54am 18.3 16.0 11.8 66 3.6 NE 15 28 8 15 1018.3 1018.0 0.0
22/09:30am 17.6 16.2 12.1 70 3.1 ENE 11 20 6 11 1018.4 1018.1 0.0
22/09:00am 15.5 14.8 11.9 79 2.0 SE 7 9 4 5 1018.8 1018.4 0.2
22/08:30am 14.6 13.3 11.4 81 1.7 ESE 9 11 5 6 1018.9 1018.5 0.2
22/08:09am 15.3 13.4 11.9 80 1.9 ESE 13 17 7 9 1018.8 1018.4 0.2
22/08:00am 14.2 12.3 11.7 85 1.4 E 13 17 7 9 1018.6 1018.3 0.2
22/07:30am 13.7 12.8 11.4 86 1.3 ESE 7 17 4 9 1018.4 1018.1 0.2
22/07:22am 13.5 13.7 11.9 90 0.9 NNE 2 7 1 4 1018.5 1018.2 0.2
22/07:00am 12.3 12.5 10.7 90 0.8 CALM 0 0 0 0 1018.3 1018.0 0.2
22/06:30am 11.0 10.5 9.4 90 0.8 NW 2 6 1 3 1018.1 1017.8 0.2
22/06:00am 11.1 10.0 9.9 92 0.6 SSW 6 11 3 6 1017.9 1017.6 0.2
22/05:30am 9.9 9.6 8.5 91 0.7 CALM 0 0 0 0 1017.8 1017.5 0.2
22/05:00am 9.2 8.2 7.3 88 0.9 WNW 2 6 1 3 1017.8 1017.5 0.2
22/04:30am 9.4 8.5 7.8 90 0.8 ESE 2 7 1 4 1017.5 1017.2 0.2
22/04:00am 8.5 6.9 6.5 87 0.9 SSW 4 7 2 4 1017.5 1017.2 0.2
22/03:30am 7.8 5.7 5.6 86 1.0 NW 6 7 3 4 1017.7 1017.4 0.2
22/03:27am 7.8 5.7 5.6 86 1.0 NW 6 7 3 4 1017.6 1017.3 0.2
22/03:10am 7.9 6.9 5.5 85 1.1 CALM 0 0 0 0 1017.7 1017.4 0.2
22/03:00am 8.2 7.1 5.3 82 1.3 CALM 0 0 0 0 1017.7 1017.4 0.2
22/02:30am 9.7 8.1 8.0 89 0.8 S 6 7 3 4 1017.9 1017.6 0.2
22/02:00am 8.6 8.0 7.2 91 0.7 CALM 0 0 0 0 1018.2 1017.9 0.2
22/01:30am 8.9 7.0 7.7 92 0.6 S 7 11 4 6 1018.2 1017.9 0.2
22/01:16am 8.3 5.9 6.9 91 0.7 S 9 13 5 7 1018.3 1018.0 0.2
22/01:00am 7.7 5.1 6.3 91 0.7 S 9 13 5 7 1018.4 1018.1 0.2
22/12:30am 8.2 6.6 6.2 87 0.9 SSW 4 7 2 4 1018.5 1018.2 0.2
22/12:00am 9.9 9.3 7.5 85 1.2 CALM 0 0 0 0 1018.8 1018.4 0.2
 
Date/Time
EST
Temp
°C
App
Temp
°C
Dew
Point
°C
Rel
Hum
%
Delta-T
°C
Wind Press
QNH
hPa
Press
MSL
hPa
Rain since
9am
mm
Dir  Spd
km/h
Gust
km/h
Spd
kts
Gust
kts
21/11:30pm 12.0 11.1 9.4 84 1.3 E 4 11 2 6 1018.9 1018.5 0.2
21/11:00pm 12.4 11.2 9.6 83 1.5 NE 6 9 3 5 1019.0 1018.6 0.2
21/10:30pm 11.8 10.1 8.5 80 1.7 SE 7 9 4 5 1019.0 1018.6 0.2

Latest Capital City Observations: Canberra | Sydney | Melbourne | Brisbane | Adelaide | Perth | Hobart | Darwin

Other Formats:

Comma delimited format used in spreadsheet applications
http://www.bom.gov.au/fwo/IDQ60901/IDQ60901.94549.axf

JavaScript Object Notation format (JSON) in row-major order
http://www.bom.gov.au/fwo/IDQ60901/IDQ60901.94549.json